Weather at Lester B. Pearson International Airport

Public forecast

Using degrees Celsius for public forecast. Weather courtesy of forecast.io.

Current aviation weather report (METAR) for Lester B. Pearson International Airport

Retrieved 2021/01/18 00:36 UTC (0 seconds ago):

CYYZ 180036Z 30006KT 10SM -SN BKN033 OVC075 01/M02 A2962 RMK SC7AC1 SLP039

Aviation forecast (TAF) for Lester B. Pearson International Airport

Retrieved 2021-01-18 00:40 UTC (0 seconds ago):

TAF CYYZ 172338Z 1800/1906 32005KT P6SM -SHSN SCT020 OVC040 TEMPO 1800/1802 21/2SM -SHSN OVC020 PROB30 1800/1802 3/4SM -SHSN VV008 FM180200 36005KT P6SM SCT015 OVC030 TEMPO 1802/1804 P6SM -SN BKN015 OVC030 FM182100 29010G20KT P6SM -SHSN OVC025 PROB30 1821/1902 1SM -SHSN VV010 FM190200 04008KT P6SM OVC025 RMK NXT FCST BY 180300Z